Time;durP1;ratioP1;P1;durP2;ratioP2;P2;SDS_P1;SDS_P2;PMS_P1;PMS_P2;Temp;Humidity;BMP_temperature;BMP_pressure;BME280_temperature;BME280_humidity;BME280_pressure;Samples;Min_cycle;Max_cycle;Signal;HPM_P1;HPM_P2
2021/05/22 00:00:10;;;;;;;5.70;1.60;;;10.10;99.90;;;;;;5045515;28;20230;-56
2021/05/22 00:02:39;;;;;;;6.70;1.73;;;10.10;99.90;;;;;;5066489;28;20236;-56
2021/05/22 00:05:09;;;;;;;7.47;1.80;;;10.10;99.90;;;;;;5067370;28;20708;-56
2021/05/22 00:07:37;;;;;;;6.57;1.80;;;10.20;99.90;;;;;;5067739;28;21342;-55
2021/05/22 00:10:10;;;;;;;6.50;2.13;;;10.20;99.90;;;;;;5063251;28;20239;-57
2021/05/22 00:12:38;;;;;;;5.30;1.83;;;10.20;99.90;;;;;;5046401;28;20321;-55
2021/05/22 00:15:10;;;;;;;5.77;2.17;;;10.10;99.90;;;;;;5046453;28;20243;-57
2021/05/22 00:17:38;;;;;;;5.80;2.30;;;10.10;99.90;;;;;;5045377;28;20362;-54
2021/05/22 00:20:08;;;;;;;6.77;2.03;;;10.10;99.90;;;;;;5046213;28;20789;-56
2021/05/22 00:22:37;;;;;;;5.83;1.90;;;10.10;99.90;;;;;;5081885;28;20250;-56
2021/05/22 00:25:06;;;;;;;7.60;2.10;;;10.10;99.90;;;;;;5065997;28;20239;-53
2021/05/22 00:27:34;;;;;;;6.20;1.90;;;10.10;99.90;;;;;;5046882;28;20236;-55
2021/05/22 00:30:03;;;;;;;5.10;2.13;;;10.10;99.90;;;;;;5046878;28;20717;-55
2021/05/22 00:32:31;;;;;;;8.40;2.30;;;10.10;99.90;;;;;;5045771;28;20819;-57
2021/05/22 00:34:59;;;;;;;7.60;1.80;;;10.00;99.90;;;;;;5047579;28;20418;-57
2021/05/22 00:37:26;;;;;;;5.47;2.10;;;10.00;99.90;;;;;;5046877;28;20239;-53
2021/05/22 00:39:54;;;;;;;6.10;2.13;;;10.00;99.90;;;;;;5034308;28;20232;-54
2021/05/22 00:42:23;;;;;;;9.07;2.20;;;10.10;99.90;;;;;;5026061;28;20726;-56
2021/05/22 00:45:12;;;;;;;6.83;1.97;;;10.00;99.90;;;;;;5035634;28;20326;-57
2021/05/22 00:47:42;;;;;;;6.83;1.87;;;10.10;99.90;;;;;;5043433;28;20248;-57
2021/05/22 00:50:13;;;;;;;6.07;2.13;;;10.00;99.90;;;;;;5045697;28;20269;-55
2021/05/22 00:52:41;;;;;;;5.77;1.80;;;10.10;99.90;;;;;;5044644;28;20743;-57
2021/05/22 00:55:10;;;;;;;6.87;1.70;;;10.10;99.90;;;;;;5047428;28;20238;-54
2021/05/22 00:57:40;;;;;;;5.40;2.00;;;10.10;99.90;;;;;;5065864;28;20707;-57
2021/05/22 01:00:15;;;;;;;5.50;1.80;;;10.00;99.90;;;;;;5041951;28;20240;-56
2021/05/22 01:02:43;;;;;;;4.87;1.70;;;10.00;99.90;;;;;;5045255;28;20284;-58
2021/05/22 01:05:12;;;;;;;6.20;1.97;;;10.10;99.90;;;;;;5049139;28;20311;-54
2021/05/22 01:07:41;;;;;;;7.87;1.77;;;10.00;99.90;;;;;;5049265;28;20241;-56
2021/05/22 01:10:13;;;;;;;6.47;2.00;;;10.00;99.90;;;;;;5063858;28;20237;-56
2021/05/22 01:12:47;;;;;;;5.13;1.60;;;10.10;99.90;;;;;;5048766;28;20233;-56
2021/05/22 01:15:20;;;;;;;7.40;1.50;;;10.10;99.90;;;;;;5048916;28;20255;-56
2021/05/22 01:17:50;;;;;;;6.43;1.50;;;10.10;99.90;;;;;;5046276;28;20684;-53
2021/05/22 01:20:32;;;;;;;4.73;1.40;;;10.10;99.90;;;;;;5048857;28;20240;-56
2021/05/22 01:23:04;;;;;;;6.03;1.87;;;10.10;99.90;;;;;;5048751;28;20232;-54
2021/05/22 01:25:36;;;;;;;5.70;1.70;;;10.10;99.90;;;;;;5054044;28;20240;-57
2021/05/22 01:28:06;;;;;;;5.20;1.60;;;10.10;99.90;;;;;;5052305;28;20751;-57
2021/05/22 01:30:35;;;;;;;4.97;1.70;;;10.10;99.90;;;;;;5034911;28;20252;-56
2021/05/22 01:33:05;;;;;;;5.90;2.10;;;10.10;99.90;;;;;;5048420;28;20294;-56
2021/05/22 01:35:34;;;;;;;4.93;1.50;;;10.10;99.90;;;;;;5050209;28;20237;-55
2021/05/22 01:38:01;;;;;;;6.00;1.63;;;10.10;99.90;;;;;;5050386;28;20779;-57
2021/05/22 01:40:29;;;;;;;6.40;1.40;;;10.00;99.90;;;;;;5046766;28;20256;-56
2021/05/22 01:42:58;;;;;;;4.63;1.33;;;10.00;99.90;;;;;;5049073;28;20236;-55
2021/05/22 01:45:28;;;;;;;7.13;1.47;;;10.00;99.90;;;;;;5045813;28;20590;-57
2021/05/22 01:48:00;;;;;;;6.50;1.70;;;10.00;99.90;;;;;;5049948;28;20788;-53
2021/05/22 01:50:32;;;;;;;6.97;1.30;;;10.00;99.90;;;;;;5033896;28;20247;-57
2021/05/22 01:53:05;;;;;;;5.63;1.50;;;10.00;99.90;;;;;;5049087;28;20232;-56
2021/05/22 01:55:35;;;;;;;7.07;1.70;;;10.00;99.90;;;;;;5046967;28;20229;-56
2021/05/22 01:58:04;;;;;;;5.17;1.50;;;9.90;99.90;;;;;;5047083;28;20934;-57
2021/05/22 02:00:32;;;;;;;3.70;1.53;;;9.90;99.90;;;;;;5049524;28;20249;-54
2021/05/22 02:03:08;;;;;;;3.93;1.47;;;9.90;99.90;;;;;;5049896;28;20229;-57
2021/05/22 02:05:36;;;;;;;3.83;1.43;;;9.90;99.90;;;;;;5049247;28;20248;-57
2021/05/22 02:08:11;;;;;;;5.17;1.50;;;9.90;99.90;;;;;;5049254;28;20235;-56
2021/05/22 02:10:41;;;;;;;3.43;1.47;;;9.90;99.90;;;;;;5053962;28;20317;-53
2021/05/22 02:13:10;;;;;;;3.70;1.40;;;10.00;99.90;;;;;;5068969;28;20288;-57
2021/05/22 02:15:40;;;;;;;4.07;1.40;;;10.00;99.90;;;;;;5063265;28;20255;-58
2021/05/22 02:18:12;;;;;;;3.20;1.30;;;10.00;99.90;;;;;;5049451;28;20672;-57
2021/05/22 02:20:40;;;;;;;7.07;1.30;;;10.00;99.90;;;;;;5048347;28;20373;-56
2021/05/22 02:23:08;;;;;;;6.00;1.90;;;10.00;99.90;;;;;;5048568;28;20240;-55
2021/05/22 02:25:36;;;;;;;5.13;1.60;;;10.00;99.90;;;;;;5054469;28;20279;-56
2021/05/22 02:28:06;;;;;;;5.97;1.83;;;10.00;99.90;;;;;;5069185;28;20236;-54
2021/05/22 02:30:40;;;;;;;6.53;1.50;;;10.00;99.90;;;;;;5039779;28;20233;-57
2021/05/22 02:33:11;;;;;;;6.10;1.50;;;10.00;99.90;;;;;;5048342;28;20249;-55
2021/05/22 02:35:40;;;;;;;3.67;1.33;;;9.90;99.90;;;;;;5054749;28;20540;-54
2021/05/22 02:38:13;;;;;;;5.93;1.60;;;9.90;99.90;;;;;;5062185;28;20238;-55
2021/05/22 02:40:42;;;;;;;4.40;1.50;;;9.90;99.90;;;;;;5047596;28;20680;-56
2021/05/22 02:43:11;;;;;;;4.57;1.50;;;9.90;99.90;;;;;;5042110;28;20247;-56
2021/05/22 02:45:44;;;;;;;3.40;1.40;;;9.90;99.90;;;;;;5048827;28;20294;-55
2021/05/22 02:48:18;;;;;;;5.57;1.47;;;9.90;99.90;;;;;;5049113;28;20591;-57
2021/05/22 02:50:49;;;;;;;4.17;1.57;;;9.90;99.90;;;;;;5054937;28;20740;-58
2021/05/22 02:53:20;;;;;;;6.87;1.77;;;9.90;99.90;;;;;;5067739;28;20239;-58
2021/05/22 02:55:49;;;;;;;3.97;1.27;;;9.90;99.90;;;;;;5056226;28;20238;-54
2021/05/22 02:58:18;;;;;;;3.20;1.70;;;9.90;99.90;;;;;;5030937;28;20270;-58
2021/05/22 03:00:48;;;;;;;6.63;1.60;;;9.90;99.90;;;;;;5046007;28;20237;-55
2021/05/22 03:03:18;;;;;;;6.33;1.83;;;9.90;99.90;;;;;;5048133;28;20311;-57
2021/05/22 03:05:46;;;;;;;6.30;1.70;;;9.80;99.90;;;;;;5054639;28;20231;-58
2021/05/22 03:08:14;;;;;;;5.47;2.10;;;9.80;99.90;;;;;;5068378;28;20239;-58
2021/05/22 03:10:42;;;;;;;7.00;1.70;;;9.80;99.90;;;;;;5067721;28;20239;-57
2021/05/22 03:13:13;;;;;;;8.70;1.70;;;9.80;99.90;;;;;;5053063;28;20240;-57
2021/05/22 03:15:41;;;;;;;5.17;1.83;;;9.80;99.90;;;;;;5054206;28;20235;-57
2021/05/22 03:18:10;;;;;;;6.67;1.80;;;9.80;99.90;;;;;;5062251;28;20339;-56
2021/05/22 03:20:38;;;;;;;7.60;1.73;;;9.80;99.90;;;;;;5047471;28;20240;-56
2021/05/22 03:23:07;;;;;;;4.17;1.80;;;9.80;99.90;;;;;;5047409;28;20237;-57
2021/05/22 03:25:35;;;;;;;4.80;1.50;;;9.80;99.90;;;;;;5047338;28;20241;-58
2021/05/22 03:28:03;;;;;;;4.97;1.50;;;9.80;99.90;;;;;;5048233;28;20233;-57
2021/05/22 03:30:31;;;;;;;5.20;1.30;;;9.80;99.90;;;;;;5046270;28;20236;-56
2021/05/22 03:32:59;;;;;;;3.07;1.40;;;9.80;99.90;;;;;;5046735;28;20245;-56
2021/05/22 03:35:28;;;;;;;5.43;1.57;;;9.90;99.90;;;;;;5045850;28;20282;-56
2021/05/22 03:37:56;;;;;;;5.17;1.40;;;9.90;99.90;;;;;;5047767;28;20646;-55
2021/05/22 03:40:24;;;;;;;5.37;1.40;;;9.90;99.90;;;;;;5048415;28;20247;-57
2021/05/22 03:42:51;;;;;;;6.87;2.43;;;9.90;99.90;;;;;;5047069;28;20247;-56
2021/05/22 03:45:19;;;;;;;5.37;1.63;;;9.90;99.90;;;;;;5047495;28;20304;-57
2021/05/22 03:47:58;;;;;;;4.43;1.29;;;9.90;99.90;;;;;;3420307;28;10002370;-58
2021/05/22 03:50:26;;;;;;;3.80;1.47;;;9.90;99.90;;;;;;2958375;28;10002116;-58
2021/05/22 03:52:54;;;;;;;8.63;1.80;;;9.90;99.90;;;;;;5046961;28;20554;-56
2021/05/22 03:55:22;;;;;;;4.97;1.73;;;9.90;99.90;;;;;;5045243;28;20247;-56
2021/05/22 03:57:50;;;;;;;4.23;1.43;;;9.90;99.90;;;;;;5067903;28;20625;-56
2021/05/22 04:00:19;;;;;;;4.37;1.77;;;9.90;99.90;;;;;;5063165;28;20249;-58
2021/05/22 04:02:47;;;;;;;5.13;1.40;;;9.90;99.90;;;;;;5046713;28;20597;-57
2021/05/22 04:05:15;;;;;;;3.90;1.40;;;9.90;99.90;;;;;;5049707;28;20653;-57
2021/05/22 04:07:45;;;;;;;5.40;1.53;;;9.90;99.90;;;;;;5065856;28;20243;-57
2021/05/22 04:10:14;;;;;;;4.23;1.23;;;9.90;99.90;;;;;;5065330;28;20241;-57
2021/05/22 04:12:42;;;;;;;3.30;1.50;;;10.00;99.90;;;;;;5046363;28;20279;-57
2021/05/22 04:15:11;;;;;;;4.10;1.30;;;10.00;99.90;;;;;;5046761;28;20232;-57
2021/05/22 04:17:39;;;;;;;5.67;1.70;;;10.00;99.90;;;;;;5047434;28;20236;-57
2021/05/22 04:20:08;;;;;;;4.70;1.40;;;10.00;99.90;;;;;;5047615;28;20256;-57
2021/05/22 04:22:36;;;;;;;5.70;1.50;;;10.10;99.90;;;;;;5046599;28;20700;-55
2021/05/22 04:25:05;;;;;;;3.67;1.37;;;10.10;99.90;;;;;;5046717;28;20657;-56
2021/05/22 04:27:34;;;;;;;5.80;1.50;;;10.20;99.90;;;;;;5045969;28;20262;-57
2021/05/22 04:30:01;;;;;;;5.33;1.63;;;10.20;99.90;;;;;;5047306;28;20703;-57
2021/05/22 04:32:29;;;;;;;3.83;1.30;;;10.20;99.90;;;;;;5046515;28;20302;-55
2021/05/22 04:34:58;;;;;;;5.90;1.57;;;10.30;99.90;;;;;;5043642;28;20576;-55
2021/05/22 04:37:25;;;;;;;3.87;1.30;;;10.30;99.90;;;;;;5045185;28;20251;-57
2021/05/22 04:39:53;;;;;;;2.87;1.30;;;10.40;99.90;;;;;;5051280;28;20331;-57
2021/05/22 04:42:21;;;;;;;4.50;1.30;;;10.50;99.90;;;;;;5050337;28;20311;-55
2021/05/22 04:44:50;;;;;;;5.57;1.50;;;10.50;99.90;;;;;;5051956;28;20235;-58
2021/05/22 04:47:18;;;;;;;5.03;1.20;;;10.50;99.90;;;;;;5051098;28;20286;-57
2021/05/22 04:49:46;;;;;;;3.83;1.10;;;10.50;99.90;;;;;;5051462;28;20284;-55
2021/05/22 04:52:14;;;;;;;5.90;1.33;;;10.60;99.90;;;;;;5049427;28;20249;-57
2021/05/22 04:54:45;;;;;;;6.23;1.80;;;10.70;99.90;;;;;;5031314;28;20770;-57
2021/05/22 04:57:13;;;;;;;3.80;1.30;;;10.80;99.90;;;;;;5049482;28;20240;-54
2021/05/22 04:59:41;;;;;;;6.53;1.27;;;11.00;99.90;;;;;;5051052;28;20345;-55
2021/05/22 05:02:10;;;;;;;4.20;1.30;;;11.10;99.90;;;;;;5048947;28;20271;-56
2021/05/22 05:04:38;;;;;;;4.77;1.40;;;11.20;99.90;;;;;;5050384;28;20727;-56
2021/05/22 05:07:06;;;;;;;2.87;1.23;;;11.20;99.90;;;;;;5068411;28;20331;-55
2021/05/22 05:09:36;;;;;;;5.07;1.40;;;11.20;99.90;;;;;;5070866;28;20945;-57
2021/05/22 05:12:07;;;;;;;4.07;1.30;;;11.20;99.90;;;;;;5052143;28;20238;-58
2021/05/22 05:14:35;;;;;;;3.20;1.20;;;11.10;99.90;;;;;;5050135;28;20250;-54
2021/05/22 05:17:03;;;;;;;5.27;1.30;;;11.20;99.90;;;;;;5067446;28;20243;-57
2021/05/22 05:19:32;;;;;;;5.07;1.20;;;11.10;99.90;;;;;;5070638;28;20758;-56
2021/05/22 05:22:00;;;;;;;7.60;1.87;;;11.10;99.90;;;;;;5069662;28;20242;-58
2021/05/22 05:24:28;;;;;;;4.93;1.47;;;11.20;99.90;;;;;;5070615;28;20242;-54
2021/05/22 05:26:56;;;;;;;7.00;1.30;;;11.20;99.90;;;;;;5054085;28;20252;-56
2021/05/22 05:29:24;;;;;;;2.53;1.10;;;11.20;99.90;;;;;;5050043;28;20241;-55
2021/05/22 05:31:51;;;;;;;3.20;1.17;;;11.20;99.90;;;;;;5049031;28;20252;-57
2021/05/22 05:34:19;;;;;;;4.00;1.30;;;11.20;99.90;;;;;;5043168;28;20246;-57
2021/05/22 05:36:48;;;;;;;8.60;1.33;;;11.20;99.90;;;;;;5048300;28;20245;-58
2021/05/22 05:39:17;;;;;;;4.70;1.30;;;11.20;99.90;;;;;;5050432;28;20251;-55
2021/05/22 05:41:45;;;;;;;7.17;1.30;;;11.30;99.90;;;;;;5049301;28;20295;-57
2021/05/22 05:44:12;;;;;;;5.53;1.30;;;11.20;99.90;;;;;;5049061;28;20694;-58
2021/05/22 05:46:40;;;;;;;3.43;1.17;;;11.30;99.90;;;;;;5047825;28;20758;-55
2021/05/22 05:49:08;;;;;;;3.63;1.40;;;11.40;99.90;;;;;;5047611;28;20701;-57
2021/05/22 05:51:36;;;;;;;5.10;1.00;;;11.40;99.90;;;;;;5047375;28;20867;-58
2021/05/22 05:54:05;;;;;;;5.20;1.40;;;11.40;99.90;;;;;;5048809;28;20696;-56
2021/05/22 05:56:33;;;;;;;3.23;1.30;;;11.40;99.90;;;;;;5047582;28;20229;-56
2021/05/22 05:59:00;;;;;;;2.80;1.10;;;11.40;99.90;;;;;;5041975;28;20245;-58
2021/05/22 06:01:28;;;;;;;7.53;1.33;;;11.50;99.90;;;;;;5046255;28;20743;-56
2021/05/22 06:03:56;;;;;;;5.63;1.53;;;11.50;99.90;;;;;;5039846;28;20241;-57
2021/05/22 06:06:24;;;;;;;3.43;1.30;;;11.60;99.90;;;;;;5033332;28;20247;-57
2021/05/22 06:08:52;;;;;;;3.83;1.27;;;11.60;99.90;;;;;;5028562;28;20693;-56
2021/05/22 06:11:23;;;;;;;4.13;1.20;;;11.70;99.90;;;;;;5050585;28;20244;-57
2021/05/22 06:13:51;;;;;;;3.83;1.20;;;11.70;99.90;;;;;;5032368;28;20238;-57
2021/05/22 06:16:25;;;;;;;4.70;1.53;;;11.80;99.90;;;;;;5030876;28;20598;-57
2021/05/22 06:18:53;;;;;;;3.10;1.07;;;11.90;99.90;;;;;;5047924;28;20685;-57
2021/05/22 06:21:21;;;;;;;5.13;1.50;;;11.90;99.90;;;;;;5059222;28;20709;-58
2021/05/22 06:23:49;;;;;;;4.13;1.10;;;11.80;99.90;;;;;;5056726;28;20234;-57
2021/05/22 06:26:17;;;;;;;3.47;1.50;;;11.80;99.90;;;;;;5050346;28;20746;-55
2021/05/22 06:28:46;;;;;;;7.90;1.70;;;12.00;99.90;;;;;;5039742;28;20613;-55
2021/05/22 06:31:15;;;;;;;4.43;1.50;;;12.60;99.90;;;;;;5044716;28;20245;-56
2021/05/22 06:33:43;;;;;;;6.80;1.67;;;13.00;99.90;;;;;;5043985;28;20243;-57
2021/05/22 06:36:11;;;;;;;3.40;1.13;;;13.10;99.90;;;;;;5054445;28;20227;-57
2021/05/22 06:38:39;;;;;;;5.93;1.57;;;13.40;99.90;;;;;;5044924;28;20595;-55
2021/05/22 06:41:07;;;;;;;3.53;1.57;;;13.30;99.90;;;;;;5047041;28;20231;-55
2021/05/22 06:43:35;;;;;;;4.20;1.30;;;13.30;99.90;;;;;;5029496;28;20322;-56
2021/05/22 06:46:46;;;;;;;3.00;1.13;;;13.10;99.90;;;;;;5045783;28;20570;-57
2021/05/22 06:48:54;;;;;;;5.03;1.60;;;13.00;99.90;;;;;;5066980;28;20227;-57
2021/05/22 06:51:22;;;;;;;3.63;1.57;;;12.80;99.90;;;;;;5057525;28;20732;-57
2021/05/22 06:53:50;;;;;;;3.67;1.30;;;12.70;99.90;;;;;;5027768;28;20247;-55
2021/05/22 06:56:18;;;;;;;3.23;1.60;;;12.70;99.90;;;;;;5038530;28;20277;-58
2021/05/22 06:58:47;;;;;;;4.27;1.43;;;12.80;99.90;;;;;;5047207;28;20296;-57
2021/05/22 07:01:17;;;;;;;3.53;1.50;;;12.90;99.90;;;;;;5046353;28;20645;-58
2021/05/22 07:03:44;;;;;;;3.10;1.33;;;13.00;99.90;;;;;;5048273;28;20262;-56
2021/05/22 07:06:12;;;;;;;5.03;1.60;;;13.10;99.90;;;;;;5047980;28;20706;-58
2021/05/22 07:08:40;;;;;;;2.90;1.33;;;13.30;99.90;;;;;;5040053;28;20750;-56
2021/05/22 07:11:08;;;;;;;5.90;1.70;;;13.30;99.90;;;;;;5037814;28;20227;-56
2021/05/22 07:13:36;;;;;;;4.90;1.53;;;13.10;99.90;;;;;;5047849;28;20261;-55
2021/05/22 07:16:05;;;;;;;5.37;1.50;;;13.00;99.90;;;;;;5047973;28;20302;-57
2021/05/22 07:18:34;;;;;;;2.97;1.40;;;12.80;99.90;;;;;;5048190;28;20246;-56
2021/05/22 07:21:01;;;;;;;3.23;1.20;;;12.70;99.90;;;;;;5048045;28;20651;-58
2021/05/22 07:23:30;;;;;;;3.57;1.53;;;12.70;99.90;;;;;;5047791;28;20318;-58
2021/05/22 07:25:58;;;;;;;3.87;1.43;;;12.70;99.90;;;;;;5042363;28;20277;-57
2021/05/22 07:28:26;;;;;;;6.27;1.20;;;12.60;99.90;;;;;;5053347;28;20337;-56
2021/05/22 07:30:54;;;;;;;3.07;1.03;;;12.60;99.90;;;;;;5043643;28;20239;-57
2021/05/22 07:33:21;;;;;;;3.00;1.50;;;12.60;99.90;;;;;;5045519;28;20239;-56
2021/05/22 07:35:53;;;;;;;4.00;1.50;;;12.80;99.90;;;;;;5046926;28;20566;-56
2021/05/22 07:38:22;;;;;;;4.20;1.57;;;12.90;99.90;;;;;;5033205;28;20346;-58
2021/05/22 07:40:50;;;;;;;6.40;1.57;;;12.90;99.90;;;;;;5031956;28;20228;-55
2021/05/22 07:43:20;;;;;;;4.37;1.43;;;12.70;99.90;;;;;;5026290;28;20662;-56
2021/05/22 07:45:50;;;;;;;6.23;1.57;;;12.70;99.90;;;;;;5033217;28;20244;-55
2021/05/22 07:48:20;;;;;;;4.53;1.40;;;12.70;99.90;;;;;;5040337;28;20236;-58
2021/05/22 07:50:48;;;;;;;4.83;1.47;;;12.70;99.90;;;;;;5053311;28;20303;-57
2021/05/22 07:53:16;;;;;;;3.67;1.40;;;12.60;99.90;;;;;;5066052;28;20245;-57
2021/05/22 07:55:44;;;;;;;3.10;1.37;;;12.40;99.90;;;;;;5058369;28;20242;-57
2021/05/22 07:58:15;;;;;;;3.80;1.50;;;12.20;99.90;;;;;;5038519;28;20297;-56
2021/05/22 08:00:43;;;;;;;3.83;1.80;;;12.20;99.90;;;;;;5032638;28;20239;-57
2021/05/22 08:03:11;;;;;;;6.27;1.90;;;12.00;99.90;;;;;;5041987;28;20261;-57
2021/05/22 08:05:39;;;;;;;5.43;2.07;;;12.00;99.90;;;;;;5032721;28;20723;-54
2021/05/22 08:08:07;;;;;;;4.17;1.73;;;11.90;99.90;;;;;;5047401;28;20246;-56
2021/05/22 08:10:36;;;;;;;6.10;1.97;;;11.80;99.90;;;;;;5046205;28;20293;-55
2021/05/22 08:13:05;;;;;;;6.23;1.97;;;11.80;99.90;;;;;;5028113;28;20236;-55
2021/05/22 08:15:34;;;;;;;2.60;1.93;;;11.80;99.90;;;;;;5033335;28;20763;-55
2021/05/22 08:18:02;;;;;;;5.53;1.90;;;11.80;99.90;;;;;;5045928;28;20242;-57
2021/05/22 08:20:30;;;;;;;5.40;2.50;;;11.70;99.90;;;;;;5049236;28;20546;-55
2021/05/22 08:22:57;;;;;;;5.13;2.40;;;11.70;99.90;;;;;;5046670;28;20965;-63
2021/05/22 08:25:26;;;;;;;8.80;2.73;;;11.70;99.90;;;;;;5045590;28;20234;-56
2021/05/22 08:27:54;;;;;;;5.13;2.47;;;11.90;99.90;;;;;;5043325;28;20237;-55
2021/05/22 08:30:22;;;;;;;7.00;2.20;;;11.80;99.90;;;;;;5045059;28;20812;-57
2021/05/22 08:32:50;;;;;;;5.17;2.63;;;11.70;99.90;;;;;;5044264;28;20235;-58
2021/05/22 08:35:18;;;;;;;7.47;2.70;;;11.70;99.90;;;;;;5048180;28;20676;-55
2021/05/22 08:37:46;;;;;;;6.03;2.77;;;11.60;99.90;;;;;;5060417;28;20234;-58
2021/05/22 08:40:15;;;;;;;5.97;2.93;;;11.60;99.90;;;;;;5044908;28;20302;-57
2021/05/22 08:42:42;;;;;;;4.87;2.73;;;11.60;99.90;;;;;;5044369;28;20253;-57
2021/05/22 08:45:14;;;;;;;6.97;2.40;;;11.60;99.90;;;;;;5044689;28;20642;-56
2021/05/22 08:47:43;;;;;;;5.00;2.33;;;11.60;99.90;;;;;;5041742;28;20250;-56
2021/05/22 08:50:13;;;;;;;5.70;2.53;;;11.60;99.90;;;;;;5044727;28;20326;-57
2021/05/22 08:52:42;;;;;;;6.37;2.43;;;11.60;99.90;;;;;;5041713;28;20234;-54
2021/05/22 08:55:11;;;;;;;4.33;2.63;;;11.70;99.90;;;;;;5041737;28;20235;-57
2021/05/22 08:57:40;;;;;;;6.33;2.30;;;11.60;99.90;;;;;;5042079;28;20620;-56
2021/05/22 09:00:15;;;;;;;4.73;2.40;;;11.60;99.90;;;;;;5044271;28;20312;-56
2021/05/22 09:02:43;;;;;;;5.20;2.67;;;11.60;99.90;;;;;;5040295;28;20246;-57
2021/05/22 09:05:24;;;;;;;2.93;2.13;;;11.60;99.90;;;;;;5044451;28;20241;-57
2021/05/22 09:07:54;;;;;;;9.90;2.63;;;11.60;99.90;;;;;;5043167;28;20235;-57
2021/05/22 09:10:24;;;;;;;5.47;2.70;;;11.50;99.90;;;;;;5044463;28;20251;-56
2021/05/22 09:12:55;;;;;;;6.73;3.20;;;11.50;99.90;;;;;;5044159;28;20299;-57
2021/05/22 09:15:25;;;;;;;4.70;2.40;;;11.50;99.90;;;;;;5044183;28;20604;-58
2021/05/22 09:17:55;;;;;;;4.60;2.73;;;11.50;99.90;;;;;;5044955;28;20313;-58
2021/05/22 09:20:27;;;;;;;7.13;2.70;;;11.50;99.90;;;;;;5042255;28;20246;-57
2021/05/22 09:22:58;;;;;;;5.10;2.97;;;11.50;99.90;;;;;;5042565;28;20242;-54
2021/05/22 09:25:28;;;;;;;7.10;3.60;;;11.40;99.90;;;;;;5040246;28;20713;-56
2021/05/22 09:27:57;;;;;;;8.50;3.30;;;11.50;99.90;;;;;;5045194;28;20309;-56
2021/05/22 09:30:29;;;;;;;7.90;3.83;;;11.40;99.90;;;;;;5044857;28;20713;-56
2021/05/22 09:32:57;;;;;;;4.67;3.30;;;11.40;99.90;;;;;;5047610;28;20240;-58
2021/05/22 09:35:27;;;;;;;7.83;3.73;;;11.40;99.90;;;;;;5047243;28;20736;-58
2021/05/22 09:37:58;;;;;;;4.53;3.23;;;11.40;99.90;;;;;;5028740;28;20257;-57
2021/05/22 09:40:28;;;;;;;5.93;3.20;;;11.40;99.90;;;;;;5035576;28;20237;-58
2021/05/22 09:42:57;;;;;;;7.13;3.27;;;11.30;99.90;;;;;;5067934;28;20237;-57
2021/05/22 09:45:29;;;;;;;7.07;3.33;;;11.40;99.90;;;;;;5063952;28;20241;-59
2021/05/22 09:48:00;;;;;;;5.43;3.20;;;11.40;99.90;;;;;;5046848;28;20696;-58
2021/05/22 09:50:35;;;;;;;5.47;3.10;;;11.30;99.90;;;;;;5034670;28;20235;-58
2021/05/22 09:53:31;;;;;;;5.30;2.80;;;11.30;99.90;;;;;;5046117;28;20233;-57
2021/05/22 09:56:14;;;;;;;8.27;3.30;;;11.20;99.90;;;;;;5047712;28;20779;-56
2021/05/22 09:58:45;;;;;;;5.60;2.87;;;11.30;99.90;;;;;;5048522;28;21289;-59
2021/05/22 10:01:16;;;;;;;3.83;2.87;;;11.30;99.90;;;;;;5049797;28;20230;-58
2021/05/22 10:03:45;;;;;;;4.07;2.70;;;11.20;99.90;;;;;;5049963;28;20238;-56
2021/05/22 10:06:14;;;;;;;5.70;2.87;;;11.20;99.90;;;;;;5050132;28;20244;-57
2021/05/22 10:08:43;;;;;;;6.60;3.00;;;11.30;99.90;;;;;;5050136;28;20249;-57
2021/05/22 10:11:11;;;;;;;4.73;2.83;;;11.30;99.90;;;;;;5057996;28;20255;-57
2021/05/22 10:13:42;;;;;;;7.33;3.27;;;11.30;99.90;;;;;;5069073;28;20245;-56
2021/05/22 10:16:10;;;;;;;7.10;3.93;;;11.30;99.90;;;;;;5053887;28;20655;-57
2021/05/22 10:18:39;;;;;;;6.30;3.47;;;11.20;99.90;;;;;;5049179;28;20325;-56
2021/05/22 10:21:07;;;;;;;4.87;3.17;;;11.20;99.90;;;;;;5048384;28;20238;-58
2021/05/22 10:23:36;;;;;;;3.63;3.10;;;11.20;99.90;;;;;;5047864;28;20241;-54
2021/05/22 10:26:04;;;;;;;5.60;3.37;;;11.20;99.90;;;;;;5046916;28;20710;-58
2021/05/22 10:28:32;;;;;;;5.90;3.30;;;11.20;99.90;;;;;;5049333;28;20255;-58
2021/05/22 10:31:00;;;;;;;6.07;2.90;;;11.20;99.90;;;;;;5057527;28;20290;-57
2021/05/22 10:33:36;;;;;;;7.03;2.80;;;11.30;99.90;;;;;;5066945;28;20242;-56
2021/05/22 10:36:05;;;;;;;5.47;2.63;;;11.30;99.90;;;;;;5059762;28;20306;-56
2021/05/22 10:38:41;;;;;;;5.67;3.63;;;11.30;99.90;;;;;;5049008;28;20356;-58
2021/05/22 10:41:12;;;;;;;4.00;2.70;;;11.20;99.90;;;;;;5047462;28;20332;-56
2021/05/22 10:43:44;;;;;;;3.73;2.70;;;11.20;99.90;;;;;;5044370;28;20640;-57
2021/05/22 10:46:13;;;;;;;6.23;3.20;;;11.20;99.90;;;;;;5073892;28;20244;-58
2021/05/22 10:48:59;;;;;;;5.00;3.00;;;11.20;99.90;;;;;;5068862;28;20240;-56
2021/05/22 10:51:34;;;;;;;6.50;3.33;;;11.20;99.90;;;;;;5055451;28;20275;-55
2021/05/22 10:54:10;;;;;;;5.97;3.30;;;11.10;99.90;;;;;;5048133;28;20240;-55
2021/05/22 10:56:59;;;;;;;5.13;3.30;;;11.10;99.90;;;;;;5061350;28;20237;-54
2021/05/22 10:59:27;;;;;;;6.70;3.10;;;11.20;99.90;;;;;;5068259;28;20307;-55
2021/05/22 11:01:56;;;;;;;6.40;3.37;;;11.20;99.90;;;;;;5050917;28;20228;-58
2021/05/22 11:04:31;;;;;;;6.60;3.23;;;11.20;99.90;;;;;;5047584;28;20775;-56
2021/05/22 11:07:21;;;;;;;4.33;3.30;;;11.20;99.90;;;;;;5046525;28;20229;-57
2021/05/22 11:09:52;;;;;;;5.27;3.40;;;11.20;99.90;;;;;;5048435;28;20238;-56
2021/05/22 11:12:49;;;;;;;5.23;3.63;;;11.10;99.90;;;;;;5047528;28;20240;-56
2021/05/22 11:15:39;;;;;;;4.90;3.43;;;11.20;99.90;;;;;;5047381;28;20261;-55
2021/05/22 11:18:08;;;;;;;5.80;3.47;;;11.20;99.90;;;;;;5044137;28;20239;-56
2021/05/22 11:20:38;;;;;;;5.20;3.47;;;11.20;99.90;;;;;;5044502;28;20685;-55
2021/05/22 11:23:08;;;;;;;6.13;3.30;;;11.20;99.90;;;;;;5047575;28;20238;-56
2021/05/22 11:25:49;;;;;;;5.17;4.07;;;11.20;99.90;;;;;;5052370;28;20310;-56
2021/05/22 11:28:19;;;;;;;5.77;3.83;;;11.30;99.90;;;;;;5067997;28;20613;-59
2021/05/22 11:30:51;;;;;;;5.80;3.60;;;11.20;99.90;;;;;;5062383;28;20235;-57
2021/05/22 11:33:33;;;;;;;5.07;3.30;;;11.20;99.90;;;;;;5047748;28;20245;-57
2021/05/22 11:36:16;;;;;;;4.93;3.40;;;11.30;99.90;;;;;;5044216;28;20239;-54
2021/05/22 11:38:48;;;;;;;4.67;3.30;;;11.30;99.90;;;;;;5031015;28;20605;-58
2021/05/22 11:41:31;;;;;;;5.20;3.33;;;11.30;99.90;;;;;;5046275;28;20248;-57
2021/05/22 11:44:07;;;;;;;4.43;3.53;;;11.40;99.90;;;;;;5047484;28;20294;-57
2021/05/22 11:46:35;;;;;;;5.13;3.37;;;11.40;99.90;;;;;;5046741;28;20252;-57
2021/05/22 11:49:03;;;;;;;4.20;3.13;;;11.40;99.90;;;;;;5047685;28;20572;-57
2021/05/22 11:51:37;;;;;;;4.27;3.27;;;11.40;99.90;;;;;;5059209;28;20310;-56
2021/05/22 11:54:09;;;;;;;3.60;3.13;;;11.40;99.90;;;;;;5067238;28;20336;-55
2021/05/22 11:56:39;;;;;;;6.87;3.27;;;11.50;99.90;;;;;;5053228;28;20287;-58
2021/05/22 11:59:13;;;;;;;3.73;3.10;;;11.50;99.90;;;;;;5044563;28;20230;-59
2021/05/22 12:01:43;;;;;;;5.70;3.37;;;11.40;99.90;;;;;;5035206;28;20245;-57
2021/05/22 12:04:13;;;;;;;3.73;3.30;;;11.50;99.90;;;;;;5027703;28;20770;-57
2021/05/22 12:06:45;;;;;;;5.37;3.80;;;11.40;99.90;;;;;;5029502;28;20253;-55
2021/05/22 12:09:16;;;;;;;3.77;3.23;;;11.40;99.90;;;;;;5027732;28;20712;-56
2021/05/22 12:11:58;;;;;;;5.03;3.40;;;11.40;99.90;;;;;;5055922;28;20245;-58
2021/05/22 12:14:40;;;;;;;7.70;3.70;;;11.40;99.90;;;;;;5046059;28;20241;-56
2021/05/22 12:17:09;;;;;;;5.57;3.60;;;11.50;99.90;;;;;;5042663;28;20320;-55
2021/05/22 12:19:39;;;;;;;4.30;3.90;;;11.50;99.90;;;;;;5044003;28;20233;-57
2021/05/22 12:22:11;;;;;;;5.20;4.00;;;11.60;99.90;;;;;;5045574;28;20279;-56
2021/05/22 12:24:41;;;;;;;4.23;3.70;;;11.60;99.90;;;;;;5047068;28;20235;-57
2021/05/22 12:27:13;;;;;;;5.73;3.60;;;11.60;99.90;;;;;;5044349;28;20226;-58
2021/05/22 12:29:48;;;;;;;4.57;3.90;;;11.60;99.90;;;;;;5060439;28;20236;-57
2021/05/22 12:32:16;;;;;;;5.17;3.73;;;11.60;99.90;;;;;;5028461;28;20247;-58
2021/05/22 12:34:44;;;;;;;4.57;3.80;;;11.60;99.90;;;;;;5027062;28;20893;-57
2021/05/22 12:37:19;;;;;;;4.33;3.57;;;11.60;99.90;;;;;;5045655;28;20262;-56
2021/05/22 12:39:52;;;;;;;4.20;3.90;;;11.60;99.90;;;;;;5043426;28;20253;-57
2021/05/22 12:42:24;;;;;;;6.70;3.83;;;11.60;99.90;;;;;;5045647;28;20277;-57
2021/05/22 12:44:54;;;;;;;4.93;4.03;;;11.60;99.90;;;;;;5029804;28;20239;-58
2021/05/22 12:47:35;;;;;;;3.63;3.33;;;11.70;99.90;;;;;;5046985;28;20254;-56
2021/05/22 12:50:06;;;;;;;3.23;2.93;;;11.70;99.90;;;;;;5046012;28;20237;-58
2021/05/22 12:52:49;;;;;;;4.83;3.30;;;11.70;99.90;;;;;;5058962;28;20237;-58
2021/05/22 12:55:23;;;;;;;4.13;3.40;;;11.70;99.90;;;;;;5042603;28;20242;-59
2021/05/22 12:57:52;;;;;;;3.40;3.10;;;11.80;99.90;;;;;;5047176;28;20327;-59
2021/05/22 13:00:23;;;;;;;4.10;3.30;;;11.80;99.90;;;;;;5062865;28;20247;-59
2021/05/22 13:02:56;;;;;;;3.60;3.23;;;11.80;99.90;;;;;;5038698;28;20262;-60